Time;durP1;ratioP1;P1;durP2;ratioP2;P2;SDS_P1;SDS_P2;PMS_P1;PMS_P2;Temp;Humidity;BMP_temperature;BMP_pressure;BME280_temperature;BME280_humidity;BME280_pressure;Samples;Min_cycle;Max_cycle;Signal;HPM_P1;HPM_P2
2021/10/30 00:02:10;;;;;;;20.17;13.30;;;;;;;;;;5054731;28;20053;-69
2021/10/30 00:04:37;;;;;;;17.83;13.25;;;;;;;;;;5055215;28;20084;-69
2021/10/30 00:07:04;;;;;;;18.60;13.13;;;;;;;;;;5066130;28;20052;-69
2021/10/30 00:09:30;;;;;;;18.55;12.60;;;;;;;;;;5074743;28;20090;-69
2021/10/30 00:11:57;;;;;;;17.70;13.40;;;;;;;;;;5074764;28;20053;-68
2021/10/30 00:14:24;;;;;;;17.55;13.23;;;;;;;;;;5074110;28;20052;-69
2021/10/30 00:16:50;;;;;;;16.42;12.65;;;;;;;;;;5074567;28;20052;-69
2021/10/30 00:19:17;;;;;;;17.25;12.93;;;;;;;;;;5074722;28;20135;-69
2021/10/30 00:21:44;;;;;;;17.38;12.80;;;;;;;;;;5074104;28;20056;-69
2021/10/30 00:24:10;;;;;;;19.10;11.77;;;;;;;;;;5074691;28;20056;-69
2021/10/30 00:26:37;;;;;;;18.30;11.90;;;;;;;;;;5057787;28;20052;-68
2021/10/30 00:29:04;;;;;;;17.98;12.48;;;;;;;;;;5054401;28;20045;-68
2021/10/30 00:31:30;;;;;;;18.17;12.82;;;;;;;;;;5054060;28;20553;-69
2021/10/30 00:33:57;;;;;;;17.83;12.35;;;;;;;;;;5054415;28;20055;-69
2021/10/30 00:36:23;;;;;;;16.60;11.95;;;;;;;;;;5054313;28;20487;-69
2021/10/30 00:38:50;;;;;;;14.20;11.15;;;;;;;;;;5054111;28;20056;-69
2021/10/30 00:41:17;;;;;;;16.50;11.93;;;;;;;;;;5054141;28;20041;-69
2021/10/30 00:43:44;;;;;;;15.65;11.77;;;;;;;;;;5054061;28;20080;-69
2021/10/30 00:46:11;;;;;;;17.02;12.30;;;;;;;;;;5054226;28;20053;-69
2021/10/30 00:48:37;;;;;;;16.15;11.80;;;;;;;;;;5056358;28;20127;-69
2021/10/30 00:51:05;;;;;;;17.55;12.55;;;;;;;;;;5073968;28;20102;-69
2021/10/30 00:53:32;;;;;;;17.80;11.65;;;;;;;;;;5073766;28;20052;-70
2021/10/30 00:56:00;;;;;;;17.38;12.43;;;;;;;;;;5074331;28;20495;-69
2021/10/30 00:58:29;;;;;;;18.60;13.15;;;;;;;;;;5073743;28;20052;-69
2021/10/30 01:00:56;;;;;;;19.42;12.68;;;;;;;;;;5072522;28;20057;-69
2021/10/30 01:03:23;;;;;;;18.25;12.48;;;;;;;;;;5072437;28;20045;-69
2021/10/30 01:05:50;;;;;;;16.80;12.30;;;;;;;;;;5073900;28;20056;-68
2021/10/30 01:08:18;;;;;;;16.95;12.48;;;;;;;;;;5073788;28;20105;-68
2021/10/30 01:10:46;;;;;;;15.88;12.75;;;;;;;;;;5072315;28;20049;-68
2021/10/30 01:13:12;;;;;;;18.00;12.07;;;;;;;;;;5072762;28;20052;-68
2021/10/30 01:15:39;;;;;;;21.02;12.93;;;;;;;;;;5073436;28;20052;-69
2021/10/30 01:18:06;;;;;;;18.63;12.70;;;;;;;;;;5073703;28;20056;-68
2021/10/30 01:20:32;;;;;;;18.17;12.82;;;;;;;;;;5073470;28;20049;-68
2021/10/30 01:23:00;;;;;;;19.23;13.00;;;;;;;;;;5073218;28;20525;-69
2021/10/30 01:25:27;;;;;;;18.95;12.63;;;;;;;;;;5063888;28;20045;-69
2021/10/30 01:27:55;;;;;;;19.27;12.13;;;;;;;;;;5073049;28;20114;-69
2021/10/30 01:30:22;;;;;;;17.13;12.05;;;;;;;;;;5072020;28;20485;-69
2021/10/30 01:32:52;;;;;;;16.40;11.40;;;;;;;;;;5072864;28;20090;-68
2021/10/30 01:35:38;;;;;;;15.52;11.63;;;;;;;;;;5073312;28;20048;-69
2021/10/30 01:38:05;;;;;;;20.48;12.23;;;;;;;;;;5056118;28;20530;-68
2021/10/30 01:40:45;;;;;;;15.10;11.98;;;;;;;;;;5053005;28;20049;-68
2021/10/30 01:43:12;;;;;;;15.00;11.25;;;;;;;;;;5052994;28;20478;-68
2021/10/30 01:45:40;;;;;;;17.95;11.93;;;;;;;;;;5052882;28;20049;-69
2021/10/30 01:48:07;;;;;;;17.95;12.55;;;;;;;;;;5053061;28;20051;-68
2021/10/30 01:50:33;;;;;;;18.10;11.68;;;;;;;;;;5052981;28;20045;-69
2021/10/30 01:53:03;;;;;;;17.17;11.57;;;;;;;;;;5052591;28;20052;-69
2021/10/30 01:55:34;;;;;;;15.57;11.65;;;;;;;;;;5052598;28;20456;-69
2021/10/30 01:58:01;;;;;;;16.67;12.00;;;;;;;;;;5052815;28;20341;-69
2021/10/30 02:00:28;;;;;;;16.48;11.57;;;;;;;;;;5052615;28;20099;-69
2021/10/30 02:02:55;;;;;;;16.00;11.50;;;;;;;;;;5052373;28;20076;-69
2021/10/30 02:05:22;;;;;;;15.85;12.02;;;;;;;;;;5052668;28;20049;-69
2021/10/30 02:07:49;;;;;;;16.63;11.82;;;;;;;;;;5052523;28;20048;-69
2021/10/30 02:10:16;;;;;;;16.15;12.45;;;;;;;;;;5052275;28;20261;-69
2021/10/30 02:12:43;;;;;;;17.48;12.35;;;;;;;;;;5051739;28;20465;-69
2021/10/30 02:15:10;;;;;;;18.73;12.88;;;;;;;;;;5052375;28;20048;-69
2021/10/30 02:17:37;;;;;;;16.73;12.10;;;;;;;;;;5052383;28;20487;-69
2021/10/30 02:20:05;;;;;;;21.00;12.68;;;;;;;;;;5066704;28;20056;-69
2021/10/30 02:22:32;;;;;;;19.88;12.93;;;;;;;;;;5071888;28;20049;-68
2021/10/30 02:24:59;;;;;;;23.77;12.93;;;;;;;;;;5072172;28;20495;-69
2021/10/30 02:27:25;;;;;;;15.55;11.48;;;;;;;;;;5072256;28;20075;-69
2021/10/30 02:29:52;;;;;;;19.00;12.65;;;;;;;;;;5071331;28;20044;-69
2021/10/30 02:32:19;;;;;;;18.52;12.85;;;;;;;;;;5070364;28;20106;-69
2021/10/30 02:34:46;;;;;;;19.70;12.63;;;;;;;;;;5071859;28;20049;-69
2021/10/30 02:37:12;;;;;;;17.88;12.60;;;;;;;;;;5072340;28;20063;-69
2021/10/30 02:39:39;;;;;;;19.38;12.73;;;;;;;;;;5052901;28;20122;-69
2021/10/30 02:42:06;;;;;;;18.27;11.82;;;;;;;;;;5050624;28;20102;-68
2021/10/30 02:44:33;;;;;;;16.92;12.52;;;;;;;;;;5051903;28;20049;-69
2021/10/30 02:46:59;;;;;;;21.05;13.57;;;;;;;;;;5052019;28;20052;-69
2021/10/30 02:49:26;;;;;;;19.27;13.25;;;;;;;;;;5051880;28;20470;-69
2021/10/30 02:51:53;;;;;;;19.42;12.02;;;;;;;;;;5051533;28;20052;-69
2021/10/30 02:54:20;;;;;;;17.75;12.60;;;;;;;;;;5051879;28;20454;-68
2021/10/30 02:56:47;;;;;;;18.77;12.98;;;;;;;;;;5051749;28;20049;-69
2021/10/30 02:59:14;;;;;;;19.90;12.73;;;;;;;;;;5050675;28;20044;-69
2021/10/30 03:01:40;;;;;;;17.15;12.15;;;;;;;;;;5051449;28;20257;-69
2021/10/30 03:04:07;;;;;;;16.65;12.10;;;;;;;;;;5051853;28;20080;-69
2021/10/30 03:06:34;;;;;;;20.05;12.77;;;;;;;;;;5051682;28;20053;-69
2021/10/30 03:09:01;;;;;;;16.70;11.77;;;;;;;;;;5051808;28;20562;-69
2021/10/30 03:11:27;;;;;;;17.13;12.57;;;;;;;;;;5051389;28;20049;-69
2021/10/30 03:13:54;;;;;;;17.98;11.52;;;;;;;;;;5051777;28;20056;-69
2021/10/30 03:16:21;;;;;;;15.07;11.68;;;;;;;;;;5051654;28;20396;-68
2021/10/30 03:18:48;;;;;;;17.95;12.48;;;;;;;;;;5051750;28;20103;-68
2021/10/30 03:21:15;;;;;;;16.33;11.55;;;;;;;;;;5050100;28;20052;-69
2021/10/30 03:23:41;;;;;;;17.48;11.75;;;;;;;;;;5055199;28;20067;-68
2021/10/30 03:26:08;;;;;;;17.25;12.07;;;;;;;;;;5056581;28;20503;-68
2021/10/30 03:28:35;;;;;;;16.50;12.02;;;;;;;;;;5070511;28;20496;-68
2021/10/30 03:31:01;;;;;;;16.65;11.75;;;;;;;;;;5055618;28;20099;-68
2021/10/30 03:33:28;;;;;;;16.50;11.95;;;;;;;;;;5055222;28;20052;-68
2021/10/30 03:35:54;;;;;;;20.33;13.55;;;;;;;;;;5055515;28;20053;-69
2021/10/30 03:38:21;;;;;;;17.63;12.90;;;;;;;;;;5055350;28;20102;-69
2021/10/30 03:40:48;;;;;;;17.30;12.20;;;;;;;;;;5055464;28;20098;-69
2021/10/30 03:43:15;;;;;;;16.05;12.15;;;;;;;;;;5055118;28;20120;-68
2021/10/30 03:45:42;;;;;;;16.75;11.88;;;;;;;;;;5055217;28;20095;-69
2021/10/30 03:48:08;;;;;;;23.63;16.65;;;;;;;;;;5071797;28;20568;-68
2021/10/30 03:50:36;;;;;;;25.42;15.73;;;;;;;;;;5075087;28;20052;-68
2021/10/30 03:53:06;;;;;;;21.83;14.55;;;;;;;;;;5074899;28;20056;-68
2021/10/30 03:55:33;;;;;;;22.35;14.93;;;;;;;;;;5075067;28;20052;-68
2021/10/30 03:58:00;;;;;;;19.65;14.50;;;;;;;;;;5074630;28;20049;-69
2021/10/30 04:00:27;;;;;;;19.65;13.57;;;;;;;;;;5075033;28;20052;-68
2021/10/30 04:02:53;;;;;;;18.27;13.02;;;;;;;;;;5074892;28;20075;-68
2021/10/30 04:05:21;;;;;;;19.55;13.35;;;;;;;;;;5075042;28;20578;-69
2021/10/30 04:07:47;;;;;;;17.70;12.95;;;;;;;;;;5061209;28;20052;-68
2021/10/30 04:10:14;;;;;;;18.75;12.80;;;;;;;;;;5055025;28;20087;-68
2021/10/30 04:12:41;;;;;;;16.67;11.77;;;;;;;;;;5054437;28;20201;-68
2021/10/30 04:15:08;;;;;;;15.93;11.45;;;;;;;;;;5054832;28;20045;-69
2021/10/30 04:17:35;;;;;;;16.70;12.43;;;;;;;;;;5054610;28;20049;-68
2021/10/30 04:20:02;;;;;;;17.02;12.38;;;;;;;;;;5054883;28;20099;-68
2021/10/30 04:22:29;;;;;;;16.08;12.90;;;;;;;;;;5087482;23;20048;-67
2021/10/30 04:24:57;;;;;;;17.02;11.82;;;;;;;;;;5036982;28;20048;-68
2021/10/30 04:27:24;;;;;;;16.10;11.50;;;;;;;;;;5053254;28;20053;-69
2021/10/30 04:29:51;;;;;;;19.38;12.18;;;;;;;;;;5036850;28;20053;-69
2021/10/30 04:32:18;;;;;;;18.40;12.30;;;;;;;;;;5054103;28;20049;-67
2021/10/30 04:34:58;;;;;;;16.45;11.70;;;;;;;;;;5052428;28;20052;-68
2021/10/30 04:37:25;;;;;;;17.67;12.63;;;;;;;;;;5053918;28;20111;-67
2021/10/30 04:39:52;;;;;;;16.55;11.88;;;;;;;;;;5054228;28;20465;-67
2021/10/30 04:42:19;;;;;;;16.52;12.25;;;;;;;;;;5052849;28;20098;-67
2021/10/30 04:44:46;;;;;;;16.58;11.30;;;;;;;;;;5036531;28;20123;-67
2021/10/30 04:47:14;;;;;;;14.45;10.88;;;;;;;;;;5052770;28;20099;-67
2021/10/30 04:49:42;;;;;;;16.27;11.88;;;;;;;;;;5052847;28;20056;-68
2021/10/30 04:52:09;;;;;;;17.17;11.30;;;;;;;;;;5019969;28;20045;-67
2021/10/30 04:54:35;;;;;;;18.63;11.85;;;;;;;;;;5054033;28;20060;-67
2021/10/30 04:57:02;;;;;;;16.65;11.30;;;;;;;;;;5052701;28;20052;-67
2021/10/30 04:59:29;;;;;;;20.10;11.93;;;;;;;;;;5052649;28;20052;-67
2021/10/30 05:01:55;;;;;;;15.15;11.38;;;;;;;;;;5053523;28;20056;-67
2021/10/30 05:04:22;;;;;;;17.08;11.35;;;;;;;;;;5052723;28;20044;-67
2021/10/30 05:06:49;;;;;;;18.20;11.75;;;;;;;;;;5053503;28;20554;-67
2021/10/30 05:09:16;;;;;;;18.35;12.15;;;;;;;;;;5052602;28;20049;-67
2021/10/30 05:11:42;;;;;;;18.13;12.65;;;;;;;;;;5052021;28;20099;-67
2021/10/30 05:14:09;;;;;;;19.88;13.10;;;;;;;;;;5053889;28;20103;-69
2021/10/30 05:16:35;;;;;;;16.63;11.95;;;;;;;;;;5019508;28;20136;-69
2021/10/30 05:19:02;;;;;;;18.60;12.65;;;;;;;;;;5052657;28;20111;-69
2021/10/30 05:21:29;;;;;;;18.50;13.13;;;;;;;;;;5052165;28;20049;-68
2021/10/30 05:23:56;;;;;;;18.33;12.38;;;;;;;;;;5052087;28;20079;-69
2021/10/30 05:26:26;;;;;;;19.20;12.32;;;;;;;;;;5035962;28;20049;-70
2021/10/30 05:28:53;;;;;;;18.48;12.88;;;;;;;;;;5052241;28;20458;-70
2021/10/30 05:31:20;;;;;;;17.15;12.55;;;;;;;;;;5052274;28;20106;-70
2021/10/30 05:33:46;;;;;;;19.98;13.07;;;;;;;;;;5051952;28;20076;-69
2021/10/30 05:36:13;;;;;;;18.33;12.70;;;;;;;;;;5052195;28;20053;-69
2021/10/30 05:38:50;;;;;;;23.05;14.35;;;;;;;;;;5053081;28;20485;-70
2021/10/30 05:41:18;;;;;;;22.58;14.45;;;;;;;;;;5052760;28;20048;-69
2021/10/30 05:43:45;;;;;;;17.98;12.65;;;;;;;;;;5019316;28;20135;-70
2021/10/30 05:46:12;;;;;;;17.95;12.27;;;;;;;;;;5034505;28;20106;-69
2021/10/30 05:48:39;;;;;;;18.60;12.40;;;;;;;;;;5051653;28;20081;-69
2021/10/30 05:51:10;;;;;;;20.67;13.00;;;;;;;;;;5051888;28;20095;-70
2021/10/30 05:53:40;;;;;;;20.35;13.10;;;;;;;;;;5052818;28;20057;-70
2021/10/30 05:56:07;;;;;;;19.95;12.70;;;;;;;;;;5051805;28;20078;-70
2021/10/30 05:58:33;;;;;;;15.80;11.18;;;;;;;;;;5035124;28;20059;-70
2021/10/30 06:01:00;;;;;;;19.17;12.18;;;;;;;;;;5052720;28;20056;-69
2021/10/30 06:03:28;;;;;;;19.00;12.15;;;;;;;;;;5052415;28;20052;-70
2021/10/30 06:05:54;;;;;;;18.17;11.98;;;;;;;;;;5052769;28;20059;-70
2021/10/30 06:08:21;;;;;;;17.90;12.18;;;;;;;;;;5031299;28;20547;-70
2021/10/30 06:10:48;;;;;;;18.48;12.13;;;;;;;;;;5032539;28;20111;-70
2021/10/30 06:13:14;;;;;;;17.70;12.63;;;;;;;;;;5031099;28;20095;-70
2021/10/30 06:15:41;;;;;;;21.45;13.07;;;;;;;;;;5031316;28;20045;-70
2021/10/30 06:18:07;;;;;;;21.77;12.75;;;;;;;;;;5032706;28;20061;-70
2021/10/30 06:20:34;;;;;;;19.42;12.95;;;;;;;;;;5032495;28;20103;-70
2021/10/30 06:23:02;;;;;;;19.58;12.90;;;;;;;;;;5030865;28;20049;-68
2021/10/30 06:25:29;;;;;;;18.58;12.30;;;;;;;;;;4999180;28;20053;-68
2021/10/30 06:27:57;;;;;;;17.27;12.90;;;;;;;;;;5031562;28;20049;-68
2021/10/30 06:30:23;;;;;;;17.13;11.95;;;;;;;;;;5020452;28;20049;-67
2021/10/30 06:32:51;;;;;;;18.25;11.55;;;;;;;;;;5024963;28;20098;-67
2021/10/30 06:35:18;;;;;;;16.73;11.48;;;;;;;;;;5037393;28;20073;-68
2021/10/30 06:37:45;;;;;;;15.77;11.02;;;;;;;;;;5037542;28;20512;-67
2021/10/30 06:40:13;;;;;;;13.52;10.20;;;;;;;;;;5038700;28;20111;-67
2021/10/30 06:42:40;;;;;;;15.25;11.27;;;;;;;;;;5039084;28;20042;-67
2021/10/30 06:45:07;;;;;;;15.70;10.57;;;;;;;;;;5034055;28;20099;-67
2021/10/30 06:47:35;;;;;;;14.77;10.70;;;;;;;;;;5038341;28;20045;-67
2021/10/30 06:50:03;;;;;;;14.18;10.20;;;;;;;;;;5037830;28;20141;-67
2021/10/30 06:52:40;;;;;;;13.38;10.82;;;;;;;;;;5034239;28;20080;-67
2021/10/30 06:55:09;;;;;;;14.45;10.60;;;;;;;;;;5036114;28;20092;-65
2021/10/30 06:57:36;;;;;;;15.88;10.30;;;;;;;;;;5036678;28;20053;-65
2021/10/30 07:00:07;;;;;;;17.30;12.65;;;;;;;;;;5040929;28;20057;-66
2021/10/30 07:02:33;;;;;;;16.20;12.27;;;;;;;;;;5017531;28;20463;-67
2021/10/30 07:05:05;;;;;;;20.60;15.02;;;;;;;;;;5036930;28;20443;-67
2021/10/30 07:07:33;;;;;;;17.85;13.07;;;;;;;;;;5037109;28;20049;-66
2021/10/30 07:10:00;;;;;;;15.75;11.18;;;;;;;;;;5034809;28;20060;-66
2021/10/30 07:12:28;;;;;;;13.00;9.57;;;;;;;;;;5034175;28;20056;-66
2021/10/30 07:14:54;;;;;;;15.63;10.40;;;;;;;;;;5035290;28;20111;-67
2021/10/30 07:17:21;;;;;;;16.63;10.70;;;;;;;;;;5018189;28;20044;-67
2021/10/30 07:19:48;;;;;;;17.00;10.68;;;;;;;;;;5036079;28;20053;-70
2021/10/30 07:22:16;;;;;;;14.98;10.02;;;;;;;;;;5033501;28;20038;-68
2021/10/30 07:24:43;;;;;;;19.20;10.82;;;;;;;;;;5033581;28;20115;-68
2021/10/30 07:27:10;;;;;;;15.13;10.00;;;;;;;;;;5037506;28;20780;-68
2021/10/30 07:29:37;;;;;;;14.25;10.05;;;;;;;;;;5034008;28;20057;-67
2021/10/30 07:32:04;;;;;;;13.63;9.68;;;;;;;;;;5036176;28;20052;-67
2021/10/30 07:34:31;;;;;;;14.40;9.93;;;;;;;;;;5033283;28;20487;-68
2021/10/30 07:36:58;;;;;;;14.27;9.63;;;;;;;;;;5037247;28;20045;-66
2021/10/30 07:39:24;;;;;;;13.00;9.27;;;;;;;;;;5034572;28;20057;-66
2021/10/30 07:41:51;;;;;;;14.23;9.23;;;;;;;;;;5036416;28;20049;-67
2021/10/30 07:44:18;;;;;;;16.52;10.95;;;;;;;;;;5035812;28;20136;-68
2021/10/30 07:46:45;;;;;;;14.32;9.73;;;;;;;;;;5039079;28;20087;-68
2021/10/30 07:49:11;;;;;;;14.80;10.35;;;;;;;;;;5037634;28;20052;-70
2021/10/30 07:51:38;;;;;;;13.38;9.93;;;;;;;;;;5033374;28;20500;-71
2021/10/30 07:54:05;;;;;;;14.13;9.32;;;;;;;;;;5038139;28;20525;-71
2021/10/30 07:56:31;;;;;;;15.45;10.13;;;;;;;;;;5016943;28;20558;-70
2021/10/30 07:58:58;;;;;;;12.70;8.93;;;;;;;;;;5035893;28;20103;-69
2021/10/30 08:01:25;;;;;;;16.02;9.27;;;;;;;;;;5035551;28;20053;-72
2021/10/30 08:03:52;;;;;;;11.75;8.68;;;;;;;;;;5037128;28;20052;-69
2021/10/30 08:06:18;;;;;;;14.15;9.25;;;;;;;;;;5039189;28;20124;-72
2021/10/30 08:08:45;;;;;;;14.35;9.77;;;;;;;;;;5038246;28;20103;-72
2021/10/30 08:11:12;;;;;;;12.70;8.85;;;;;;;;;;5026443;28;20049;-72
2021/10/30 08:13:38;;;;;;;12.23;8.50;;;;;;;;;;5023475;28;20057;-71
2021/10/30 08:16:05;;;;;;;13.35;8.60;;;;;;;;;;5040821;28;20060;-71
2021/10/30 08:18:32;;;;;;;10.77;8.15;;;;;;;;;;5041529;28;20095;-70
2021/10/30 08:20:58;;;;;;;12.00;8.05;;;;;;;;;;5044076;28;20055;-72
2021/10/30 08:23:26;;;;;;;10.50;7.75;;;;;;;;;;5041384;28;20045;-71
2021/10/30 08:25:52;;;;;;;11.30;8.18;;;;;;;;;;5039162;28;20573;-72
2021/10/30 08:28:19;;;;;;;10.98;8.35;;;;;;;;;;5042789;28;20056;-71
2021/10/30 08:30:46;;;;;;;11.13;7.78;;;;;;;;;;5015608;28;20167;-71
2021/10/30 08:33:13;;;;;;;10.55;8.00;;;;;;;;;;5038814;28;20045;-71
2021/10/30 08:35:40;;;;;;;12.60;7.68;;;;;;;;;;5040352;28;20052;-67
2021/10/30 08:38:09;;;;;;;12.95;8.50;;;;;;;;;;5042319;28;20057;-70
2021/10/30 08:40:38;;;;;;;9.57;7.63;;;;;;;;;;5042301;28;20562;-69
2021/10/30 08:43:20;;;;;;;9.82;7.55;;;;;;;;;;5041131;28;20132;-69
2021/10/30 08:45:48;;;;;;;11.65;8.15;;;;;;;;;;5021944;28;20052;-69
2021/10/30 08:48:15;;;;;;;12.68;7.95;;;;;;;;;;5023645;28;20087;-69
2021/10/30 08:50:42;;;;;;;9.30;7.18;;;;;;;;;;5022137;28;20090;-69
2021/10/30 08:53:09;;;;;;;12.27;8.93;;;;;;;;;;5040513;28;20057;-69
2021/10/30 08:55:36;;;;;;;9.95;8.13;;;;;;;;;;5040491;28;20497;-69
2021/10/30 08:58:07;;;;;;;12.65;8.30;;;;;;;;;;5040749;28;20103;-69
2021/10/30 09:00:38;;;;;;;12.02;8.65;;;;;;;;;;5037543;28;20081;-69
2021/10/30 09:03:05;;;;;;;14.88;8.55;;;;;;;;;;5042163;28;20414;-70
2021/10/30 09:05:32;;;;;;;12.40;9.15;;;;;;;;;;5021588;28;20125;-69
2021/10/30 09:08:01;;;;;;;11.75;8.43;;;;;;;;;;5040227;28;20053;-69
2021/10/30 09:10:35;;;;;;;10.07;7.60;;;;;;;;;;5022436;28;20100;-69
2021/10/30 09:13:06;;;;;;;10.52;7.90;;;;;;;;;;5020967;28;20045;-69
2021/10/30 09:15:37;;;;;;;11.13;7.80;;;;;;;;;;5039272;28;20056;-69
2021/10/30 09:18:20;;;;;;;10.98;7.93;;;;;;;;;;5038933;28;20045;-69
2021/10/30 09:20:52;;;;;;;12.68;8.48;;;;;;;;;;5038612;28;20095;-69
2021/10/30 09:23:24;;;;;;;12.02;8.25;;;;;;;;;;5040006;28;20094;-66
2021/10/30 09:26:00;;;;;;;13.93;8.98;;;;;;;;;;5026627;28;20104;-66
2021/10/30 09:28:29;;;;;;;13.30;7.60;;;;;;;;;;5038130;28;20393;-66
2021/10/30 09:31:01;;;;;;;12.85;8.70;;;;;;;;;;5042892;28;20119;-67
2021/10/30 09:33:30;;;;;;;12.55;8.32;;;;;;;;;;5040426;28;20048;-66
2021/10/30 09:36:12;;;;;;;12.55;8.52;;;;;;;;;;5041145;28;20581;-66
2021/10/30 09:38:40;;;;;;;11.45;8.50;;;;;;;;;;5039339;28;20107;-67
2021/10/30 09:41:29;;;;;;;11.77;8.18;;;;;;;;;;5039778;28;20049;-66
2021/10/30 09:44:06;;;;;;;12.48;8.70;;;;;;;;;;5037832;28;20048;-65
2021/10/30 09:46:35;;;;;;;12.60;8.52;;;;;;;;;;5037744;28;20053;-66
2021/10/30 09:49:18;;;;;;;10.80;8.85;;;;;;;;;;5020086;28;20060;-66
2021/10/30 09:51:46;;;;;;;;;;;;;;;;;;5036904;28;20052;-66
2021/10/30 09:54:13;;;;;;;18.10;11.93;;;;;;;;;;5037697;28;20376;-66
2021/10/30 09:56:44;;;;;;;15.50;12.20;;;;;;;;;;5037990;28;20496;-66
2021/10/30 09:59:17;;;;;;;15.32;11.05;;;;;;;;;;5040030;28;20049;-66
2021/10/30 10:01:45;;;;;;;14.13;9.63;;;;;;;;;;5022684;28;20048;-66
2021/10/30 10:04:13;;;;;;;13.27;9.52;;;;;;;;;;5024305;28;20461;-67
2021/10/30 10:06:42;;;;;;;16.13;10.38;;;;;;;;;;5043220;28;20500;-66
2021/10/30 10:09:10;;;;;;;11.80;9.50;;;;;;;;;;5037448;28;20088;-67
2021/10/30 10:11:40;;;;;;;14.43;9.98;;;;;;;;;;5037975;28;20470;-68
2021/10/30 10:14:07;;;;;;;13.60;10.05;;;;;;;;;;5036718;28;20041;-66
2021/10/30 10:16:33;;;;;;;15.85;10.23;;;;;;;;;;5038249;28;20041;-67
2021/10/30 10:19:00;;;;;;;18.15;10.30;;;;;;;;;;5037226;28;20057;-67
2021/10/30 10:21:36;;;;;;;14.38;9.90;;;;;;;;;;5042586;28;20463;-68
2021/10/30 10:24:15;;;;;;;13.27;10.18;;;;;;;;;;5042583;28;20048;-67
2021/10/30 10:26:45;;;;;;;13.38;10.13;;;;;;;;;;5075960;23;20045;-65
2021/10/30 10:29:13;;;;;;;15.93;10.80;;;;;;;;;;5042563;28;20053;-65
2021/10/30 10:31:50;;;;;;;13.13;10.68;;;;;;;;;;5045515;28;20057;-65
2021/10/30 10:34:22;;;;;;;14.93;10.55;;;;;;;;;;5044878;28;20041;-65
2021/10/30 10:37:12;;;;;;;14.32;10.02;;;;;;;;;;5039914;28;20049;-66
2021/10/30 10:39:40;;;;;;;13.13;9.65;;;;;;;;;;5044653;28;20049;-65
2021/10/30 10:42:12;;;;;;;12.75;10.05;;;;;;;;;;5039083;28;20049;-66
2021/10/30 10:44:52;;;;;;;13.60;9.98;;;;;;;;;;5043627;28;20044;-66
2021/10/30 10:47:34;;;;;;;13.45;9.40;;;;;;;;;;5043739;28;20045;-65
2021/10/30 10:50:28;;;;;;;13.77;10.38;;;;;;;;;;5037610;28;20048;-65
2021/10/30 10:53:01;;;;;;;;;;;;;;;;;;5038928;28;21242;-65
2021/10/30 10:55:32;;;;;;;16.67;9.88;;;;;;;;;;5036804;28;20384;-65
2021/10/30 10:58:00;;;;;;;12.82;8.70;;;;;;;;;;5038749;28;20106;-64
2021/10/30 11:00:27;;;;;;;12.88;9.82;;;;;;;;;;5034935;28;20046;-64
2021/10/30 11:02:54;;;;;;;15.95;9.75;;;;;;;;;;5036469;28;20391;-65
2021/10/30 11:05:21;;;;;;;14.15;10.15;;;;;;;;;;5039431;28;20124;-65
2021/10/30 11:08:07;;;;;;;12.38;8.48;;;;;;;;;;5034719;28;20132;-65
2021/10/30 11:10:36;;;;;;;11.45;9.13;;;;;;;;;;5036653;28;20099;-65
2021/10/30 11:13:05;;;;;;;12.38;9.48;;;;;;;;;;5034119;28;20045;-66
2021/10/30 11:15:45;;;;;;;13.35;9.45;;;;;;;;;;5037732;28;20511;-66
2021/10/30 11:18:22;;;;;;;12.93;8.40;;;;;;;;;;5036038;28;20053;-66
2021/10/30 11:21:12;;;;;;;14.98;9.82;;;;;;;;;;5034650;28;20049;-66
2021/10/30 11:23:43;;;;;;;13.25;9.77;;;;;;;;;;5040477;28;20476;-65
2021/10/30 11:26:11;;;;;;;13.68;9.52;;;;;;;;;;5037469;28;20052;-65
2021/10/30 11:28:38;;;;;;;14.80;10.18;;;;;;;;;;5038008;28;20561;-65
2021/10/30 11:31:14;;;;;;;11.93;8.40;;;;;;;;;;5036661;28;20057;-68
2021/10/30 11:33:41;;;;;;;13.50;9.95;;;;;;;;;;5039402;28;20046;-69
2021/10/30 11:36:13;;;;;;;13.63;9.50;;;;;;;;;;5034180;28;20057;-64
2021/10/30 11:38:51;;;;;;;14.27;10.05;;;;;;;;;;5035601;28;20111;-64
2021/10/30 11:41:21;;;;;;;12.88;9.23;;;;;;;;;;5038332;28;20049;-70
2021/10/30 11:43:58;;;;;;;15.63;10.80;;;;;;;;;;5041738;28;20060;-70
2021/10/30 11:46:25;;;;;;;16.67;11.40;;;;;;;;;;5043779;28;20407;-71
2021/10/30 11:48:56;;;;;;;16.75;11.20;;;;;;;;;;5042289;28;20053;-70
2021/10/30 11:51:25;;;;;;;15.27;11.88;;;;;;;;;;5043481;28;20079;-71
2021/10/30 11:53:52;;;;;;;20.27;11.32;;;;;;;;;;5042178;28;20049;-70
2021/10/30 11:56:26;;;;;;;19.48;12.30;;;;;;;;;;5041016;28;20071;-69
2021/10/30 11:58:57;;;;;;;17.23;12.20;;;;;;;;;;5042718;28;20046;-71
2021/10/30 12:01:28;;;;;;;18.80;11.85;;;;;;;;;;5040129;28;20053;-70
2021/10/30 12:04:01;;;;;;;15.40;11.35;;;;;;;;;;5047191;28;20095;-72
2021/10/30 12:07:02;;;;;;;16.25;11.98;;;;;;;;;;5043518;28;20084;-69
2021/10/30 12:09:31;;;;;;;16.60;11.70;;;;;;;;;;5038876;28;20053;-67
2021/10/30 12:12:19;;;;;;;19.00;11.68;;;;;;;;;;5041964;28;20492;-66
2021/10/30 12:14:50;;;;;;;16.77;11.90;;;;;;;;;;5042629;28;20049;-67
2021/10/30 12:17:24;;;;;;;18.20;12.10;;;;;;;;;;5041546;28;20046;-67
2021/10/30 12:19:54;;;;;;;19.75;12.93;;;;;;;;;;5039475;28;20053;-68
2021/10/30 12:22:23;;;;;;;17.52;13.13;;;;;;;;;;5039354;28;20060;-66
2021/10/30 12:25:04;;;;;;;20.80;13.63;;;;;;;;;;5044400;28;20049;-69
2021/10/30 12:27:38;;;;;;;17.45;13.82;;;;;;;;;;5043144;28;20057;-66
2021/10/30 12:30:09;;;;;;;22.25;14.32;;;;;;;;;;5043591;28;20048;-67
2021/10/30 12:32:43;;;;;;;22.95;13.35;;;;;;;;;;5040327;28;20053;-66
2021/10/30 12:35:24;;;;;;;17.85;13.65;;;;;;;;;;5039302;28;20065;-68
2021/10/30 12:38:14;;;;;;;23.40;15.15;;;;;;;;;;5056073;28;20056;-66
2021/10/30 12:40:41;;;;;;;27.80;16.58;;;;;;;;;;5043672;28;20569;-69
2021/10/30 12:43:13;;;;;;;20.80;15.40;;;;;;;;;;5042158;28;20045;-66
2021/10/30 12:46:01;;;;;;;22.10;15.27;;;;;;;;;;5039677;28;20050;-66
2021/10/30 12:48:42;;;;;;;27.45;16.85;;;;;;;;;;5038387;28;20049;-65
2021/10/30 12:51:18;;;;;;;23.17;15.98;;;;;;;;;;5046595;28;20057;-66
2021/10/30 12:53:47;;;;;;;25.40;15.95;;;;;;;;;;5038856;28;20389;-67
2021/10/30 12:56:17;;;;;;;26.75;16.55;;;;;;;;;;5039414;28;20053;-65
2021/10/30 12:59:03;;;;;;;25.52;17.35;;;;;;;;;;5039878;28;20098;-67
2021/10/30 13:01:31;;;;;;;26.45;16.63;;;;;;;;;;5040035;28;20100;-70
2021/10/30 13:04:06;;;;;;;25.40;16.73;;;;;;;;;;5039881;28;20048;-67
2021/10/30 13:06:35;;;;;;;25.55;17.08;;;;;;;;;;5037958;28;20049;-67
2021/10/30 13:09:17;;;;;;;29.05;18.30;;;;;;;;;;5038268;28;20057;-66
2021/10/30 13:11:46;;;;;;;22.95;15.77;;;;;;;;;;5041920;28;20041;-65
2021/10/30 13:14:13;;;;;;;21.77;16.00;;;;;;;;;;5040186;28;20553;-65
2021/10/30 13:16:39;;;;;;;22.52;16.70;;;;;;;;;;5038239;28;20045;-65
2021/10/30 13:19:06;;;;;;;25.90;16.48;;;;;;;;;;5042818;28;20104;-65
2021/10/30 13:21:33;;;;;;;22.67;16.67;;;;;;;;;;5038343;28;20104;-65
2021/10/30 13:24:00;;;;;;;28.38;16.42;;;;;;;;;;5016193;28;20466;-65
2021/10/30 13:26:30;;;;;;;26.13;16.70;;;;;;;;;;5041245;28;20049;-67
2021/10/30 13:28:58;;;;;;;22.25;16.55;;;;;;;;;;5047362;28;20048;-70
2021/10/30 13:31:25;;;;;;;22.50;16.92;;;;;;;;;;5040702;28;20071;-73
2021/10/30 13:33:52;;;;;;;20.88;16.75;;;;;;;;;;5023274;28;20115;-68
2021/10/30 13:36:24;;;;;;;26.38;17.48;;;;;;;;;;5038959;28;20069;-68
2021/10/30 13:38:53;;;;;;;25.67;17.43;;;;;;;;;;5038300;28;20057;-67
2021/10/30 13:41:20;;;;;;;24.40;18.10;;;;;;;;;;5041315;28;20050;-67
2021/10/30 13:43:47;;;;;;;24.35;16.75;;;;;;;;;;5037128;28;20133;-67
2021/10/30 13:46:14;;;;;;;26.85;16.77;;;;;;;;;;5040474;28;20053;-66
2021/10/30 13:48:41;;;;;;;24.95;18.20;;;;;;;;;;5037711;28;20051;-66
2021/10/30 13:51:07;;;;;;;26.00;17.63;;;;;;;;;;5041072;28;20056;-67
2021/10/30 13:53:34;;;;;;;23.88;16.50;;;;;;;;;;5037416;28;20041;-65
2021/10/30 13:56:01;;;;;;;21.63;16.55;;;;;;;;;;5043328;28;20526;-65
2021/10/30 13:58:33;;;;;;;23.08;16.80;;;;;;;;;;5037826;28;20069;-68
2021/10/30 14:01:00;;;;;;;25.00;16.77;;;;;;;;;;5039502;28;20059;-67
2021/10/30 14:03:28;;;;;;;24.90;16.02;;;;;;;;;;5038639;28;20053;-65
2021/10/30 14:05:55;;;;;;;24.95;17.42;;;;;;;;;;5036923;28;20050;-65
2021/10/30 14:08:22;;;;;;;22.25;16.00;;;;;;;;;;5038223;28;20425;-70
2021/10/30 14:10:48;;;;;;;26.05;18.05;;;;;;;;;;5037569;28;20049;-68
2021/10/30 14:13:15;;;;;;;25.50;18.27;;;;;;;;;;5042971;28;20099;-67
2021/10/30 14:15:41;;;;;;;26.95;18.27;;;;;;;;;;5039491;28;20470;-68
2021/10/30 14:18:08;;;;;;;27.83;17.48;;;;;;;;;;5053271;28;20052;-67
2021/10/30 14:20:35;;;;;;;22.38;17.13;;;;;;;;;;5043714;28;20068;-68
2021/10/30 14:23:01;;;;;;;26.77;19.02;;;;;;;;;;5040060;28;20057;-69
2021/10/30 14:25:28;;;;;;;27.58;18.15;;;;;;;;;;5040999;28;20049;-69
2021/10/30 14:27:55;;;;;;;24.27;17.52;;;;;;;;;;5040999;28;20079;-67
2021/10/30 14:30:21;;;;;;;26.40;18.20;;;;;;;;;;5037631;28;20061;-68
2021/10/30 14:32:48;;;;;;;21.90;16.65;;;;;;;;;;5038692;28;20103;-66